Time;durP1;ratioP1;P1;durP2;ratioP2;P2;SDS_P1;SDS_P2;PMS_P1;PMS_P2;Temp;Humidity;BMP_temperature;BMP_pressure;BME280_temperature;BME280_humidity;BME280_pressure;Samples;Min_cycle;Max_cycle;Signal;HPM_P1;HPM_P2
2023/04/05 00:02:02;;;;;;;5.97;3.28;;;;;;;0.10;95.49;94158.16;5101445;28;20203;-76
2023/04/05 00:04:33;;;;;;;15.23;5.70;;;;;;;0.03;95.15;94150.44;5069641;28;20206;-78
2023/04/05 00:07:01;;;;;;;5.55;3.50;;;;;;;-0.06;95.20;94150.22;5077215;28;20221;-78
2023/04/05 00:09:28;;;;;;;5.97;3.03;;;;;;;0.05;95.52;94147.50;5099008;28;20222;-75
2023/04/05 00:11:56;;;;;;;9.25;5.40;;;;;;;-0.04;94.97;94153.41;5107325;28;20996;-76
2023/04/05 00:14:23;;;;;;;14.55;9.10;;;;;;;-0.05;95.79;94154.50;5110286;28;20301;-75
2023/04/05 00:16:50;;;;;;;5.22;3.13;;;;;;;0.03;95.70;94149.66;5096016;28;20229;-75
2023/04/05 00:19:17;;;;;;;6.97;3.78;;;;;;;0.04;95.47;94145.94;5109755;28;20592;-79
2023/04/05 00:21:43;;;;;;;12.20;7.13;;;;;;;0.06;95.63;94149.91;5095760;28;20250;-77
2023/04/05 00:24:14;;;;;;;14.43;8.80;;;;;;;-0.02;96.05;94145.97;5078206;28;20252;-75
2023/04/05 00:26:42;;;;;;;15.43;8.98;;;;;;;0.04;96.08;94152.03;5102779;28;20202;-75
2023/04/05 00:29:11;;;;;;;12.27;7.70;;;;;;;0.03;95.49;94141.66;5078641;28;20234;-81
2023/04/05 00:31:37;;;;;;;13.30;8.00;;;;;;;0.08;95.43;94153.09;5068962;28;20199;-76
2023/04/05 00:34:07;;;;;;;15.23;9.35;;;;;;;0.17;95.13;94158.63;5095785;28;20308;-77
2023/04/05 00:36:34;;;;;;;11.18;6.88;;;;;;;0.17;94.35;94162.09;5096311;28;20222;-78
2023/04/05 00:39:01;;;;;;;9.43;6.00;;;;;;;0.11;94.08;94157.09;5095308;28;20241;-74
2023/04/05 00:41:28;;;;;;;10.02;6.85;;;;;;;0.13;93.87;94162.94;5100953;27;20190;-77
2023/04/05 00:43:55;;;;;;;8.57;5.65;;;;;;;0.12;93.92;94153.34;5101770;28;20664;-76
2023/04/05 00:46:24;;;;;;;9.73;5.63;;;;;;;0.10;93.86;94155.50;5096757;28;20258;-74
2023/04/05 00:48:50;;;;;;;3.67;2.20;;;;;;;0.10;93.89;94150.16;5095056;28;20198;-75
2023/04/05 00:51:19;;;;;;;3.90;2.10;;;;;;;0.13;93.31;94157.63;5099921;28;20198;-75
2023/04/05 00:53:46;;;;;;;4.38;2.70;;;;;;;0.20;93.23;94160.75;5104286;28;20202;-76
2023/04/05 00:56:15;;;;;;;3.67;1.77;;;;;;;0.15;93.07;94169.56;5099364;28;20267;-75
2023/04/05 00:58:42;;;;;;;2.28;1.70;;;;;;;0.26;92.66;94165.00;5075267;28;20194;-75
2023/04/05 01:01:14;;;;;;;3.95;2.42;;;;;;;0.06;92.42;94167.75;5088348;28;20230;-74
2023/04/05 01:03:50;;;;;;;2.25;1.52;;;;;;;-0.02;93.14;94148.63;5106042;28;20702;-76
2023/04/05 01:06:28;;;;;;;3.15;2.00;;;;;;;0.04;93.28;94168.03;5096035;28;20260;-80
2023/04/05 01:09:05;;;;;;;7.10;3.05;;;;;;;0.11;93.76;94165.06;5081871;28;20278;-75
2023/04/05 01:11:33;;;;;;;2.63;1.95;;;;;;;0.12;93.07;94164.00;5094521;28;20212;-75
2023/04/05 01:14:01;;;;;;;2.33;1.88;;;;;;;0.18;92.49;94153.03;5099890;28;20267;-77
2023/04/05 01:16:28;;;;;;;2.35;1.67;;;;;;;0.21;92.52;94173.00;5101650;28;20221;-75
2023/04/05 01:18:57;;;;;;;1.77;1.30;;;;;;;0.30;92.74;94166.03;5096500;28;20266;-75
2023/04/05 01:21:48;;;;;;;4.18;2.10;;;;;;;0.16;92.77;94170.34;5094248;28;20221;-75
2023/04/05 01:24:24;;;;;;;3.17;2.08;;;;;;;0.11;93.46;94167.72;5095329;28;20202;-75
2023/04/05 01:27:00;;;;;;;2.92;2.13;;;;;;;0.20;93.05;94176.72;5075136;28;20209;-76
2023/04/05 01:29:42;;;;;;;3.67;1.70;;;;;;;0.21;93.09;94178.34;5099500;28;20281;-74
2023/04/05 01:32:18;;;;;;;3.95;2.53;;;;;;;0.34;92.82;94177.72;5096775;28;20205;-75
2023/04/05 01:34:50;;;;;;;4.07;2.70;;;;;;;0.30;92.72;94171.34;5101602;28;20201;-76
2023/04/05 01:37:22;;;;;;;3.15;2.00;;;;;;;0.34;92.51;94172.41;5100164;28;20246;-75
2023/04/05 01:39:50;;;;;;;3.47;1.88;;;;;;;0.27;92.78;94161.28;5082369;28;20278;-75
2023/04/05 01:42:24;;;;;;;2.72;2.00;;;;;;;0.34;92.25;94161.75;5094279;28;20248;-75
2023/04/05 01:44:52;;;;;;;8.45;5.45;;;;;;;0.26;91.85;94160.47;5099852;28;20641;-75
2023/04/05 01:47:19;;;;;;;7.15;5.43;;;;;;;0.26;92.05;94160.47;5100948;28;20659;-75
2023/04/05 01:49:46;;;;;;;6.55;4.32;;;;;;;0.29;91.62;94170.56;5096357;28;20204;-75
2023/04/05 01:52:13;;;;;;;7.15;4.05;;;;;;;0.26;91.64;94157.00;5105040;28;20197;-75
2023/04/05 01:54:39;;;;;;;7.72;4.88;;;;;;;0.38;91.45;94168.13;5096437;28;20651;-74
2023/04/05 01:57:06;;;;;;;4.80;2.17;;;;;;;0.40;91.22;94168.66;5093957;28;20195;-74
2023/04/05 01:59:33;;;;;;;2.45;1.50;;;;;;;0.32;91.50;94163.88;5098554;28;20226;-76
2023/04/05 02:02:01;;;;;;;2.53;1.70;;;;;;;0.32;91.44;94163.88;5100751;28;20201;-75
2023/04/05 02:04:28;;;;;;;1.48;1.15;;;;;;;0.40;91.10;94173.97;5096784;28;20193;-75
2023/04/05 02:06:55;;;;;;;2.20;1.83;;;;;;;0.43;90.83;94175.28;5093998;28;20261;-75
2023/04/05 02:09:21;;;;;;;1.48;1.05;;;;;;;0.40;90.80;94166.00;5098048;28;20222;-75
2023/04/05 02:11:48;;;;;;;2.22;1.48;;;;;;;0.39;90.91;94168.94;5100553;28;20923;-74
2023/04/05 02:14:15;;;;;;;1.08;0.80;;;;;;;0.41;90.94;94170.22;5077469;28;20207;-76
2023/04/05 02:16:42;;;;;;;1.90;1.33;;;;;;;0.35;91.24;94171.34;5073251;28;20237;-76
2023/04/05 02:19:10;;;;;;;3.03;2.08;;;;;;;0.44;90.92;94175.00;5098480;28;20230;-74
2023/04/05 02:21:37;;;;;;;5.80;2.53;;;;;;;0.40;91.25;94176.66;5101202;28;20593;-77
2023/04/05 02:24:04;;;;;;;2.85;1.42;;;;;;;0.40;90.68;94171.31;5076256;28;20206;-75
2023/04/05 02:26:30;;;;;;;3.22;2.30;;;;;;;0.39;90.87;94161.72;5099088;28;20202;-75
2023/04/05 02:28:57;;;;;;;1.25;1.08;;;;;;;0.47;91.00;94171.78;5076921;28;20257;-75
2023/04/05 02:31:24;;;;;;;2.28;1.50;;;;;;;0.36;90.31;94180.91;5068589;28;20211;-76
2023/04/05 02:33:51;;;;;;;2.97;2.00;;;;;;;0.35;90.47;94174.00;5090008;28;20258;-75
2023/04/05 02:36:21;;;;;;;1.27;1.10;;;;;;;0.40;90.69;94171.31;5093440;28;20206;-74
2023/04/05 02:38:47;;;;;;;1.95;1.73;;;;;;;0.44;90.63;94172.34;5095212;28;20585;-75
2023/04/05 02:41:14;;;;;;;2.22;1.38;;;;;;;0.45;90.48;94168.59;5100602;28;20226;-76
2023/04/05 02:43:41;;;;;;;2.30;1.98;;;;;;;0.37;90.69;94171.84;5099126;28;20210;-76
2023/04/05 02:46:07;;;;;;;4.05;1.75;;;;;;;0.38;91.12;94168.13;5093831;28;20208;-75
2023/04/05 02:48:34;;;;;;;3.33;2.58;;;;;;;0.26;91.25;94171.13;5097011;28;20306;-74
2023/04/05 02:51:01;;;;;;;3.08;2.30;;;;;;;0.35;91.00;94163.34;5096241;28;20562;-75
2023/04/05 02:53:29;;;;;;;2.65;1.80;;;;;;;0.26;91.16;94165.00;5098788;28;20194;-75
2023/04/05 02:55:58;;;;;;;2.10;1.70;;;;;;;0.24;91.31;94177.78;5076981;28;20210;-75
2023/04/05 02:58:25;;;;;;;4.13;2.70;;;;;;;0.24;91.12;94164.47;5103437;28;20205;-74
2023/04/05 03:00:53;;;;;;;6.35;4.30;;;;;;;0.26;91.21;94165.00;5085309;28;20292;-77
2023/04/05 03:03:21;;;;;;;5.63;2.25;;;;;;;0.31;91.61;94167.63;5070667;28;20195;-76
2023/04/05 03:05:48;;;;;;;3.42;2.20;;;;;;;0.32;91.35;94164.69;5084505;28;20217;-76
2023/04/05 03:08:18;;;;;;;2.25;1.92;;;;;;;0.39;91.27;94167.06;5097742;28;20279;-76
2023/04/05 03:10:47;;;;;;;2.35;1.50;;;;;;;0.47;91.14;94165.66;5103578;28;20302;-74
2023/04/05 03:13:14;;;;;;;3.03;1.98;;;;;;;0.41;91.48;94158.78;5106506;28;20808;-75
2023/04/05 03:15:41;;;;;;;3.63;2.30;;;;;;;0.42;91.25;94169.16;5099635;28;20297;-75
2023/04/05 03:18:08;;;;;;;3.17;2.22;;;;;;;0.42;91.50;94155.03;5097442;28;20289;-78
2023/04/05 03:20:38;;;;;;;2.53;1.77;;;;;;;0.43;90.66;94159.28;5102818;28;20287;-79
2023/04/05 03:23:06;;;;;;;2.35;2.15;;;;;;;0.39;90.80;94153.75;5102525;28;20252;-76
2023/04/05 03:25:34;;;;;;;3.10;1.95;;;;;;;0.46;90.70;94159.53;5100058;28;20208;-76
2023/04/05 03:28:04;;;;;;;2.38;1.98;;;;;;;0.41;90.94;94164.13;5096356;28;20684;-75
2023/04/05 03:30:31;;;;;;;2.35;1.65;;;;;;;0.32;90.97;94150.56;5106495;28;20193;-76
2023/04/05 03:33:00;;;;;;;4.00;2.35;;;;;;;0.42;91.19;94161.16;5105695;28;20297;-76
2023/04/05 03:35:27;;;;;;;1.63;1.52;;;;;;;0.36;91.96;94159.63;5101427;28;20198;-76
2023/04/05 03:37:55;;;;;;;1.52;1.42;;;;;;;0.32;92.40;94169.22;5106157;28;20310;-76
2023/04/05 03:40:22;;;;;;;3.78;2.47;;;;;;;0.20;94.22;94166.09;5078294;28;20326;-76
2023/04/05 03:42:49;;;;;;;2.88;1.98;;;;;;;0.08;94.15;94153.09;5087802;28;21162;-75
2023/04/05 03:45:18;;;;;;;3.60;1.98;;;;;;;0.22;94.47;94174.59;5077845;28;20218;-75
2023/04/05 03:47:45;;;;;;;3.90;2.15;;;;;;;0.28;94.45;94173.50;5101968;28;20209;-76
2023/04/05 03:50:12;;;;;;;3.60;2.00;;;;;;;0.24;94.09;94167.13;5077530;28;20210;-74
2023/04/05 03:52:39;;;;;;;8.35;5.78;;;;;;;0.20;94.12;94182.84;5080022;28;20198;-76
2023/04/05 03:55:06;;;;;;;6.35;4.97;;;;;;;0.22;94.58;94177.25;5098863;28;20203;-74
2023/04/05 03:57:33;;;;;;;6.43;4.75;;;;;;;0.22;95.02;94179.94;5104793;28;20206;-77
2023/04/05 04:00:00;;;;;;;7.90;5.50;;;;;;;0.17;96.46;94182.59;5078881;28;20211;-74
2023/04/05 04:02:28;;;;;;;6.88;5.18;;;;;;;0.12;97.46;94190.63;5081177;28;20206;-76
2023/04/05 04:04:55;;;;;;;8.68;5.78;;;;;;;0.16;98.07;94196.97;5097320;28;20940;-75
2023/04/05 04:07:21;;;;;;;9.52;6.18;;;;;;;0.07;98.45;94193.31;5102987;28;20198;-76
2023/04/05 04:09:48;;;;;;;6.10;4.35;;;;;;;0.05;98.49;94195.44;5102728;28;20201;-75
2023/04/05 04:12:15;;;;;;;10.15;7.18;;;;;;;0.15;99.15;94196.19;5095276;28;20613;-74
2023/04/05 04:14:42;;;;;;;8.57;6.13;;;;;;;0.12;98.67;94191.44;5096203;28;20259;-75
2023/04/05 04:17:08;;;;;;;8.35;5.70;;;;;;;0.15;98.02;94195.38;5102867;28;20383;-77
2023/04/05 04:19:36;;;;;;;9.45;6.72;;;;;;;0.13;97.52;94203.69;5102609;28;20866;-76
2023/04/05 04:22:03;;;;;;;8.25;5.53;;;;;;;0.20;97.52;94193.50;5082264;28;20245;-76
2023/04/05 04:24:31;;;;;;;8.43;5.75;;;;;;;0.23;97.19;94197.50;5092920;28;20218;-77
2023/04/05 04:26:58;;;;;;;8.90;6.35;;;;;;;0.28;97.45;94197.47;5068552;28;20199;-74
2023/04/05 04:29:29;;;;;;;8.48;5.90;;;;;;;0.25;97.04;94196.16;5083283;28;20221;-75
2023/04/05 04:31:56;;;;;;;6.35;4.22;;;;;;;0.24;96.91;94193.78;5098765;28;20202;-75
2023/04/05 04:34:24;;;;;;;8.82;6.32;;;;;;;0.30;97.06;94193.44;5088435;28;20257;-75
2023/04/05 04:36:59;;;;;;;3.08;2.25;;;;;;;0.30;96.68;94193.44;5097953;28;20213;-75
2023/04/05 04:39:30;;;;;;;2.88;2.17;;;;;;;0.29;96.09;94196.38;5094723;28;20301;-74
2023/04/05 04:41:58;;;;;;;2.35;1.88;;;;;;;0.34;95.49;94199.03;5096600;28;20230;-75
2023/04/05 04:44:30;;;;;;;2.92;2.03;;;;;;;0.49;94.44;94196.28;5101497;28;20202;-76
2023/04/05 04:46:56;;;;;;;1.52;1.42;;;;;;;0.56;94.36;94191.44;5101275;28;20228;-75
2023/04/05 04:49:23;;;;;;;1.40;1.20;;;;;;;0.59;93.80;94201.56;5094999;28;20251;-76
2023/04/05 04:51:51;;;;;;;5.05;2.33;;;;;;;0.65;91.60;94205.81;5095223;28;20730;-77
2023/04/05 04:54:20;;;;;;;2.45;1.80;;;;;;;0.74;90.93;94205.19;5074143;28;20206;-73
2023/04/05 04:56:47;;;;;;;2.03;1.40;;;;;;;0.83;89.98;94198.19;5101872;28;20198;-74
2023/04/05 04:59:14;;;;;;;2.63;1.08;;;;;;;0.83;89.05;94196.34;5095125;28;20201;-74
2023/04/05 05:01:44;;;;;;;1.02;0.93;;;;;;;0.87;89.38;94205.38;5094666;28;20238;-75
2023/04/05 05:04:11;;;;;;;2.80;1.67;;;;;;;0.75;88.65;94198.81;5100974;28;20207;-81
2023/04/05 05:06:38;;;;;;;2.25;1.55;;;;;;;0.66;89.42;94212.72;5101202;28;20217;-77
2023/04/05 05:09:06;;;;;;;2.55;1.70;;;;;;;0.77;90.40;94210.00;5087798;28;20214;-76
2023/04/05 05:11:33;;;;;;;2.47;1.67;;;;;;;0.73;89.75;94211.59;5073931;28;20252;-75
2023/04/05 05:14:00;;;;;;;2.28;1.60;;;;;;;0.58;91.00;94210.63;5088516;28;20264;-76
2023/04/05 05:16:26;;;;;;;2.70;1.80;;;;;;;0.57;91.59;94213.56;5101678;28;20233;-77
2023/04/05 05:18:53;;;;;;;3.17;1.48;;;;;;;0.71;91.56;94215.34;5079665;28;20666;-77
2023/04/05 05:21:20;;;;;;;2.47;1.63;;;;;;;0.73;91.71;94223.06;5096481;28;20287;-76
2023/04/05 05:23:47;;;;;;;2.83;1.90;;;;;;;0.61;91.83;94215.41;5088084;28;20194;-76
2023/04/05 05:26:15;;;;;;;4.43;1.73;;;;;;;0.57;92.03;94219.69;5090606;28;20210;-76
2023/04/05 05:28:42;;;;;;;1.92;1.45;;;;;;;0.68;92.15;94221.22;5099238;28;20206;-76
2023/04/05 05:31:09;;;;;;;0.95;0.80;;;;;;;0.70;91.67;94213.75;5102154;28;20198;-76
2023/04/05 05:33:36;;;;;;;1.85;1.30;;;;;;;0.67;91.28;94209.00;5097169;28;20202;-80
2023/04/05 05:36:03;;;;;;;2.30;1.35;;;;;;;0.60;91.46;94208.47;5094987;28;20263;-79
2023/04/05 05:38:30;;;;;;;1.30;1.20;;;;;;;0.65;92.14;94197.81;5098420;28;20293;-80
2023/04/05 05:40:57;;;;;;;2.58;1.10;;;;;;;0.75;92.32;94201.47;5101617;28;20265;-78
2023/04/05 05:43:25;;;;;;;1.30;1.20;;;;;;;0.84;91.82;94207.78;5087879;28;20213;-78
2023/04/05 05:45:52;;;;;;;1.85;1.33;;;;;;;0.84;90.65;94213.13;5106875;28;20198;-78
2023/04/05 05:48:19;;;;;;;2.92;1.30;;;;;;;1.17;89.57;94207.03;5108071;28;20609;-78
2023/04/05 05:50:47;;;;;;;1.33;1.23;;;;;;;1.33;87.10;94211.16;5086146;28;20206;-78
2023/04/05 05:53:15;;;;;;;0.80;0.80;;;;;;;1.23;87.31;94200.56;5089573;28;20208;-77
2023/04/05 05:55:41;;;;;;;3.42;1.67;;;;;;;1.28;89.42;94200.53;5094097;28;20202;-77
2023/04/05 05:58:08;;;;;;;1.48;1.13;;;;;;;1.31;88.38;94193.84;5096420;28;20259;-78
2023/04/05 06:00:37;;;;;;;1.60;1.42;;;;;;;1.56;86.92;94196.28;5101410;28;20259;-79
2023/04/05 06:03:04;;;;;;;1.55;1.02;;;;;;;1.83;85.78;94198.41;5099156;28;20233;-76
2023/04/05 06:05:32;;;;;;;0.93;0.93;;;;;;;1.79;85.80;94197.38;5102210;28;20214;-76
2023/04/05 06:07:58;;;;;;;2.72;1.13;;;;;;;1.83;84.36;94209.09;5086960;28;20226;-76
2023/04/05 06:10:25;;;;;;;1.33;0.95;;;;;;;1.79;82.19;94205.38;5100376;28;20206;-80
2023/04/05 06:12:52;;;;;;;0.95;0.88;;;;;;;2.01;81.22;94200.34;5099941;28;20251;-77
2023/04/05 06:15:19;;;;;;;0.65;0.60;;;;;;;2.07;78.59;94209.88;5087100;28;20238;-76
2023/04/05 06:17:47;;;;;;;0.77;0.77;;;;;;;1.99;79.20;94213.19;5087028;28;20206;-76
2023/04/05 06:20:14;;;;;;;0.52;0.52;;;;;;;2.02;79.31;94217.97;5080210;28;20626;-77
2023/04/05 06:22:41;;;;;;;2.67;1.10;;;;;;;1.92;79.56;94202.03;5107674;28;20221;-77
2023/04/05 06:25:11;;;;;;;0.88;0.85;;;;;;;1.98;79.77;94216.94;5084724;28;20193;-77
2023/04/05 06:27:37;;;;;;;0.82;0.70;;;;;;;2.14;79.54;94215.69;5097751;28;20202;-76
2023/04/05 06:30:05;;;;;;;1.15;0.98;;;;;;;1.92;78.67;94207.38;5104165;28;20210;-78
2023/04/05 06:32:31;;;;;;;1.30;0.70;;;;;;;2.22;79.13;94216.13;5106029;28;20224;-75
2023/04/05 06:35:00;;;;;;;0.82;0.73;;;;;;;2.36;79.27;94222.38;5103925;28;20210;-76
2023/04/05 06:37:27;;;;;;;0.95;0.75;;;;;;;2.50;78.70;94220.59;5104908;28;20288;-75
2023/04/05 06:39:53;;;;;;;0.77;0.70;;;;;;;2.50;77.58;94223.25;5090913;28;20661;-76
2023/04/05 06:42:20;;;;;;;3.80;1.17;;;;;;;2.52;78.51;94221.09;5105050;28;20225;-77
2023/04/05 06:44:47;;;;;;;1.17;0.85;;;;;;;2.72;77.61;94234.22;5099249;28;20194;-77
2023/04/05 06:47:14;;;;;;;1.40;0.73;;;;;;;2.89;76.18;94222.19;5097606;28;20593;-75
2023/04/05 06:49:41;;;;;;;1.17;0.82;;;;;;;2.75;75.94;94230.94;5102661;27;20202;-75
2023/04/05 06:52:09;;;;;;;0.65;0.60;;;;;;;2.75;74.16;94225.59;5088012;28;20252;-74
2023/04/05 06:54:37;;;;;;;0.63;0.63;;;;;;;2.69;74.01;94239.34;5099260;28;20196;-78
2023/04/05 06:57:04;;;;;;;0.95;0.55;;;;;;;2.85;73.97;94241.53;5097684;28;20252;-76
2023/04/05 06:59:31;;;;;;;0.75;0.75;;;;;;;2.62;74.29;94247.69;5101937;28;20202;-75
2023/04/05 07:01:58;;;;;;;0.82;0.82;;;;;;;2.99;73.99;94254.19;5105178;28;20225;-74
2023/04/05 07:04:25;;;;;;;0.40;0.40;;;;;;;3.16;72.98;94247.22;5099876;28;20262;-74
2023/04/05 07:06:52;;;;;;;0.38;0.38;;;;;;;3.35;72.54;94255.25;5097403;28;20221;-74
2023/04/05 07:09:23;;;;;;;0.60;0.60;;;;;;;3.19;72.07;94251.19;5101250;28;20204;-73
2023/04/05 07:11:49;;;;;;;0.65;0.63;;;;;;;2.97;72.05;94259.03;5103929;28;20202;-74
2023/04/05 07:14:16;;;;;;;0.70;0.60;;;;;;;2.67;72.92;94271.72;5101118;28;20194;-73
2023/04/05 07:16:43;;;;;;;0.98;0.43;;;;;;;2.70;72.68;94265.78;5110474;28;20230;-73
2023/04/05 07:19:09;;;;;;;0.70;0.70;;;;;;;2.68;72.91;94262.59;5100363;28;21000;-76
2023/04/05 07:21:36;;;;;;;0.80;0.73;;;;;;;2.60;73.55;94268.56;5085162;28;20243;-75
2023/04/05 07:24:03;;;;;;;0.63;0.63;;;;;;;2.75;73.90;94283.63;5085349;28;20279;-74
2023/04/05 07:26:33;;;;;;;1.05;0.95;;;;;;;2.56;73.91;94269.44;5086995;28;20288;-76
2023/04/05 07:29:00;;;;;;;0.77;0.77;;;;;;;2.39;73.85;94269.91;5097753;28;20230;-76
2023/04/05 07:31:27;;;;;;;0.80;0.60;;;;;;;2.46;72.92;94271.16;5094986;28;20205;-73
2023/04/05 07:33:54;;;;;;;0.77;0.77;;;;;;;2.27;73.88;94281.00;5098169;28;20203;-76
2023/04/05 07:36:20;;;;;;;0.50;0.50;;;;;;;2.53;73.69;94270.81;5102075;28;20199;-76
2023/04/05 07:38:47;;;;;;;0.65;0.50;;;;;;;2.79;73.31;94269.41;5090096;28;20263;-76
2023/04/05 07:41:15;;;;;;;1.00;0.70;;;;;;;3.02;72.80;94272.31;5102766;28;20202;-79
2023/04/05 07:43:43;;;;;;;2.08;1.02;;;;;;;2.44;73.81;94284.03;5078106;28;20290;-75
2023/04/05 07:46:10;;;;;;;1.70;0.70;;;;;;;2.49;74.29;94280.47;5091895;28;20210;-75
2023/04/05 07:48:37;;;;;;;0.80;0.57;;;;;;;2.62;73.67;94278.97;5090891;28;20186;-75
2023/04/05 07:51:05;;;;;;;1.52;0.95;;;;;;;2.57;73.34;94282.53;5087892;28;20202;-74
2023/04/05 07:53:33;;;;;;;0.40;0.40;;;;;;;2.60;73.69;94291.88;5089609;28;20206;-73
2023/04/05 07:56:03;;;;;;;1.20;0.60;;;;;;;2.84;73.68;94284.59;5099874;28;20202;-74
2023/04/05 07:58:31;;;;;;;0.50;0.50;;;;;;;2.78;74.10;94289.22;5087938;28;20255;-75
2023/04/05 08:01:01;;;;;;;1.02;0.93;;;;;;;2.55;73.69;94299.94;5089094;28;20197;-74
2023/04/05 08:03:28;;;;;;;1.10;1.00;;;;;;;2.43;73.76;94292.31;5089887;28;20303;-77
2023/04/05 08:05:55;;;;;;;1.92;0.50;;;;;;;2.65;74.07;94300.59;5085683;28;20234;-77
2023/04/05 08:08:22;;;;;;;0.98;0.80;;;;;;;2.50;73.98;94298.91;5102510;28;20217;-76
2023/04/05 08:10:50;;;;;;;1.08;0.93;;;;;;;2.69;74.67;94296.28;5098183;28;20201;-76
2023/04/05 08:13:17;;;;;;;0.93;0.68;;;;;;;2.77;74.28;94306.34;5090684;28;20214;-73
2023/04/05 08:15:44;;;;;;;1.20;0.85;;;;;;;2.70;74.02;94308.56;5086787;28;20237;-72
2023/04/05 08:18:12;;;;;;;5.78;1.23;;;;;;;2.74;74.53;94303.44;5089253;28;20206;-73
2023/04/05 08:20:39;;;;;;;0.60;0.60;;;;;;;2.74;73.82;94314.94;5098373;28;20197;-76
2023/04/05 08:23:06;;;;;;;1.25;1.00;;;;;;;2.50;74.49;94314.94;5092125;28;20791;-75
2023/04/05 08:25:33;;;;;;;1.23;0.90;;;;;;;2.52;74.89;94322.69;5099217;28;20316;-74
2023/04/05 08:28:00;;;;;;;0.57;0.57;;;;;;;2.63;74.55;94313.47;5094333;27;20201;-74
2023/04/05 08:30:27;;;;;;;0.63;0.60;;;;;;;2.69;74.82;94309.66;5084375;28;20207;-73
2023/04/05 08:32:54;;;;;;;1.85;0.60;;;;;;;2.61;74.89;94315.63;5099014;28;20194;-73
2023/04/05 08:35:22;;;;;;;0.75;0.75;;;;;;;2.96;74.14;94316.28;5098574;28;20719;-77
2023/04/05 08:37:48;;;;;;;0.88;0.63;;;;;;;3.07;74.38;94315.84;5094257;28;20189;-73
2023/04/05 08:40:16;;;;;;;0.95;0.90;;;;;;;2.90;74.46;94330.78;5097410;28;20297;-72
2023/04/05 08:42:50;;;;;;;1.00;0.90;;;;;;;2.74;73.08;94314.94;5089488;28;20233;-77
2023/04/05 08:45:18;;;;;;;1.83;0.93;;;;;;;2.67;75.03;94346.56;5084379;28;20751;-74
2023/04/05 08:47:46;;;;;;;2.20;1.25;;;;;;;2.71;74.95;94325.41;5091062;28;20281;-73
2023/04/05 08:50:13;;;;;;;1.75;1.08;;;;;;;2.46;75.89;94315.81;5089167;28;20263;-75
2023/04/05 08:52:42;;;;;;;1.10;0.93;;;;;;;2.63;77.02;94326.81;5082269;28;20642;-75
2023/04/05 08:55:09;;;;;;;1.25;1.13;;;;;;;2.52;75.79;94328.03;5095023;28;20193;-73
2023/04/05 08:57:39;;;;;;;0.80;0.50;;;;;;;2.60;75.09;94335.41;5087896;28;20198;-73
2023/04/05 09:00:08;;;;;;;1.52;1.00;;;;;;;2.79;74.75;94341.63;5086968;28;20215;-71
2023/04/05 09:02:36;;;;;;;0.95;0.65;;;;;;;3.18;73.02;94345.94;5107827;28;20217;-73
2023/04/05 09:05:03;;;;;;;1.00;0.77;;;;;;;3.03;72.90;94343.47;5093284;28;20214;-72
2023/04/05 09:07:31;;;;;;;0.40;0.40;;;;;;;2.81;72.79;94357.38;5092277;28;20306;-77
2023/04/05 09:10:01;;;;;;;1.05;0.80;;;;;;;2.68;72.52;94345.50;5088935;28;20597;-74
2023/04/05 09:12:28;;;;;;;2.25;1.08;;;;;;;3.00;73.79;94346.72;5098481;28;20259;-72
2023/04/05 09:14:55;;;;;;;1.30;0.85;;;;;;;2.91;74.76;94348.44;5084936;28;20268;-73
2023/04/05 09:17:23;;;;;;;1.25;1.15;;;;;;;3.05;75.73;94341.31;5079537;28;20197;-73
2023/04/05 09:19:50;;;;;;;0.70;0.70;;;;;;;3.19;73.92;94342.19;5100694;28;20720;-73
2023/04/05 09:22:17;;;;;;;2.67;1.20;;;;;;;3.56;73.82;94350.22;5087275;28;20230;-73
2023/04/05 09:24:45;;;;;;;1.08;0.80;;;;;;;3.29;72.68;94352.75;5088877;28;20194;-81
2023/04/05 09:27:15;;;;;;;1.92;1.52;;;;;;;2.97;75.83;94349.97;5091843;28;20201;-75
2023/04/05 09:29:44;;;;;;;0.73;0.70;;;;;;;2.85;75.90;94337.81;5105622;28;20253;-74
2023/04/05 09:32:12;;;;;;;1.40;1.17;;;;;;;3.12;75.98;94339.09;5099990;28;20202;-74
2023/04/05 09:34:41;;;;;;;1.63;1.30;;;;;;;3.44;75.15;94333.00;5106983;28;20224;-74
2023/04/05 09:37:13;;;;;;;0.82;0.82;;;;;;;3.54;75.45;94339.03;5090280;28;20206;-75
2023/04/05 09:39:40;;;;;;;1.40;1.30;;;;;;;2.81;74.45;94328.75;5101299;28;20297;-80
2023/04/05 09:42:09;;;;;;;3.60;1.88;;;;;;;2.69;75.45;94333.72;5100916;28;20626;-76
2023/04/05 09:44:56;;;;;;;1.15;1.00;;;;;;;3.22;75.65;94330.91;5083608;28;20279;-74
2023/04/05 09:47:26;;;;;;;4.13;1.58;;;;;;;2.88;74.89;94340.97;5079839;28;20292;-84
2023/04/05 09:49:53;;;;;;;1.38;1.08;;;;;;;3.21;75.61;94329.31;5076938;28;20250;-73
2023/04/05 09:52:21;;;;;;;4.20;1.85;;;;;;;3.37;75.08;94340.59;5098003;28;20206;-74
2023/04/05 09:54:49;;;;;;;2.58;1.50;;;;;;;3.51;73.70;94330.78;5098126;28;20197;-72
2023/04/05 09:57:17;;;;;;;3.22;1.60;;;;;;;2.92;74.96;94336.66;5093915;28;20197;-76
2023/04/05 09:59:44;;;;;;;2.03;1.63;;;;;;;3.11;74.50;94337.47;5099964;28;20200;-76
2023/04/05 10:02:12;;;;;;;2.15;1.50;;;;;;;2.71;73.91;94347.59;5078115;28;20229;-78
2023/04/05 10:04:40;;;;;;;1.17;1.08;;;;;;;2.71;73.77;94342.25;5102530;28;20699;-73
2023/04/05 10:07:09;;;;;;;1.38;0.93;;;;;;;3.12;73.44;94350.59;5098531;28;20308;-74
2023/04/05 10:09:36;;;;;;;3.60;1.00;;;;;;;2.99;72.95;94337.91;5099929;28;20202;-73
2023/04/05 10:12:04;;;;;;;1.27;1.17;;;;;;;3.14;72.75;94347.63;5105143;28;20255;-73
2023/04/05 10:14:31;;;;;;;4.07;2.15;;;;;;;2.73;73.20;94340.06;5103764;28;20200;-73
2023/04/05 10:17:08;;;;;;;2.08;1.88;;;;;;;2.83;73.50;94349.88;5098149;28;20286;-77
2023/04/05 10:19:54;;;;;;;2.95;1.50;;;;;;;2.44;73.93;94342.81;5084174;28;20252;-82
2023/04/05 10:22:24;;;;;;;1.55;1.23;;;;;;;2.99;73.28;94347.81;5101441;28;20225;-75
2023/04/05 10:24:55;;;;;;;2.58;2.03;;;;;;;2.63;73.05;94339.41;5095085;28;20197;-72
2023/04/05 10:27:28;;;;;;;2.85;1.65;;;;;;;2.96;72.48;94343.03;5099675;28;20202;-74
2023/04/05 10:30:04;;;;;;;2.40;1.88;;;;;;;2.83;72.29;94344.53;5086643;28;20289;-75
2023/04/05 10:32:41;;;;;;;2.05;1.58;;;;;;;3.12;71.69;94342.56;5097592;28;20205;-75
2023/04/05 10:35:17;;;;;;;2.22;1.77;;;;;;;3.26;70.63;94348.00;5102224;28;20210;-75
2023/04/05 10:37:54;;;;;;;2.45;1.88;;;;;;;3.09;70.19;94350.34;5077269;28;20210;-75
2023/04/05 10:40:22;;;;;;;4.82;2.35;;;;;;;2.99;71.17;94347.81;5102576;28;20201;-72
2023/04/05 10:42:49;;;;;;;3.95;3.08;;;;;;;2.63;71.64;94348.22;5097963;28;20225;-80
2023/04/05 10:45:18;;;;;;;2.53;1.67;;;;;;;2.85;72.14;94347.72;5111244;28;20198;-78
2023/04/05 10:47:50;;;;;;;4.10;1.75;;;;;;;3.03;71.27;94343.47;5093975;28;20300;-79
2023/04/05 10:50:22;;;;;;;4.22;2.42;;;;;;;2.93;71.10;94352.41;5092473;28;20291;-75
2023/04/05 10:52:51;;;;;;;2.47;1.73;;;;;;;2.93;71.03;94344.38;5086470;28;20254;-74
2023/04/05 10:55:18;;;;;;;2.40;1.92;;;;;;;2.81;70.87;94352.03;5097566;28;20288;-76
2023/04/05 10:57:46;;;;;;;2.88;1.48;;;;;;;3.06;70.39;94359.75;5102762;28;20213;-77
2023/04/05 11:00:15;;;;;;;2.88;1.23;;;;;;;3.13;70.33;94354.06;5104547;28;20603;-76
2023/04/05 11:02:42;;;;;;;1.88;1.50;;;;;;;3.28;70.53;94369.88;5099469;28;20636;-75
2023/04/05 11:05:31;;;;;;;2.85;1.67;;;;;;;3.05;69.95;94363.50;5097001;28;20218;-77
2023/04/05 11:08:02;;;;;;;1.25;1.02;;;;;;;3.24;70.09;94366.22;5103852;28;20222;-72
2023/04/05 11:10:30;;;;;;;2.50;1.90;;;;;;;3.16;70.28;94359.59;5090515;28;20622;-75
2023/04/05 11:13:07;;;;;;;2.17;1.75;;;;;;;3.25;70.32;94367.81;5103618;28;21002;-77
2023/04/05 11:15:35;;;;;;;3.20;1.73;;;;;;;3.19;70.06;94369.75;5079612;28;20947;-75
2023/04/05 11:18:03;;;;;;;1.80;1.40;;;;;;;3.12;70.69;94380.00;5078537;28;20305;-73
2023/04/05 11:20:46;;;;;;;7.75;2.25;;;;;;;2.82;71.38;94378.50;5089735;28;20191;-79
2023/04/05 11:23:14;;;;;;;2.25;1.52;;;;;;;3.01;70.90;94361.69;5089588;28;20334;-74
2023/04/05 11:25:46;;;;;;;4.15;1.58;;;;;;;2.94;72.45;94358.56;5097109;28;20676;-74
2023/04/05 11:28:23;;;;;;;2.28;1.48;;;;;;;3.12;69.77;94363.16;5094040;28;20255;-75
2023/04/05 11:30:52;;;;;;;2.22;1.17;;;;;;;3.36;70.68;94369.25;5090031;28;20714;-74
2023/04/05 11:33:39;;;;;;;0.70;0.70;;;;;;;3.16;69.93;94372.19;5102200;28;20210;-77
2023/04/05 11:36:08;;;;;;;5.57;1.85;;;;;;;3.34;70.39;94366.06;5100384;28;20288;-76
2023/04/05 11:38:35;;;;;;;2.13;1.25;;;;;;;3.26;70.68;94360.56;5089587;28;20198;-76
2023/04/05 11:41:16;;;;;;;1.83;1.27;;;;;;;3.39;70.47;94366.00;5094524;28;20627;-75
2023/04/05 11:43:43;;;;;;;3.58;2.38;;;;;;;3.22;70.74;94376.41;5097601;28;20334;-77
2023/04/05 11:46:09;;;;;;;2.88;1.73;;;;;;;3.62;69.72;94358.97;5076793;28;21548;-70
2023/04/05 11:48:36;;;;;;;2.85;2.00;;;;;;;3.63;69.24;94367.81;5090649;28;20199;-73